• Join FlightAware (Why Join?)
  • Login
  • US Flag 
10:28PM EST


 

Airport Tracker/Info


-or-


 

Live Flight TrackerFlight Track Log ✈ ASQ6151 ✈ 16-May-2013 ✈ KSAV - KORD

Flight Track Log - Related Links

Times and Time Zones

All times are in EDT time to prevent confusion due to time zone crossing. See the ASQ6151 flight status page for this flight to view local times or setup timezone preferences in your user account.

Time Position Orientation Groundspeed Altitude Reporting Facility
EDT Latitude Longitude Course Direction KTS MPH feet Rate Location/Type
05:57PM 32.1589 -81.3147 285° West 200 230 2,900  Level Jacksonville Center
05:58PM 32.1992 -81.3753 308° West 239 275 4,700 1,860 Climbing Jacksonville Center
05:59PM 32.2417 -81.4433 306° West 264 304 6,700 2,100 Climbing Jacksonville Center
06:00PM 32.2947 -81.5211 309° West 271 312 8,900 1,740 Climbing Jacksonville Center
06:01PM 32.3456 -81.5942 309° West 287 330 10,200 900 Climbing Jacksonville Center
06:02PM 32.2391 -81.6007 285° West  Level FlightAware Approximate
06:02PM 32.3986 -81.6722 309° West 323 372 10,800  Level Jacksonville Center
06:03PM 32.4664 -81.7697 310° West 343 395 12,100 1,140 Climbing Jacksonville Center
06:04PM 32.5736 -81.9214 310° West 361 415 13,900 1,080 Climbing Atlanta Center
06:05PM 32.6378 -82.0136 310° West 366 421 15,000 1,080 Climbing Atlanta Center
06:06PM 32.7000 -82.1061 309° West 366 421 16,100 1,020 Climbing Atlanta Center
06:07PM 32.7639 -82.2011 309° West 366 421 17,100 960 Climbing Atlanta Center
06:08PM 32.8281 -82.2936 310° West 366 421 18,100 1,020 Climbing Atlanta Center
06:09PM 32.9061 -82.3661 322° Northwest 361 415 19,200 1,080 Climbing Atlanta Center
06:10PM 33.0089 -82.3964 346° North 354 407 20,300 1,020 Climbing Atlanta Center
06:11PM 33.1117 -82.4292 345° North 369 425 21,300 1,020 Climbing Atlanta Center
06:12PM 33.2164 -82.4619 345° North 375 432 22,400 1,080 Climbing Atlanta Center
06:13PM 33.3169 -82.4950 345° North 380 437 23,500 1,080 Climbing Atlanta Center
06:14PM 33.4300 -82.5281 346° North 390 449 24,600 1,080 Climbing Atlanta Center
06:15PM 33.5306 -82.5611 345° North 390 449 25,700 1,080 Climbing Atlanta Center
06:16PM 33.6292 -82.5942 344° North 379 436 26,800 1,020 Climbing Atlanta Center
06:17PM 33.7319 -82.6250 346° North 372 428 27,800 1,020 Climbing Atlanta Center
06:18PM 33.8325 -82.6583 345° North 372 428 28,900 1,080 Climbing Atlanta Center
06:19PM 33.9308 -82.6869 346° North 370 426 30,000 1,020 Climbing Atlanta Center
06:20PM 34.0292 -82.7203 344° North 357 411 31,000 900 Climbing Atlanta Center
06:21PM 34.1217 -82.7667 337° Northwest 356 410 31,900 900 Climbing Atlanta Center
06:22PM 34.2078 -82.8256 331° Northwest 350 403 32,800 900 Climbing Atlanta Center
06:23PM 34.2981 -82.8847 332° Northwest 355 409 33,700 840 Climbing Atlanta Center
06:24PM 34.3864 -82.9414 332° Northwest 364 419 34,500 780 Climbing Atlanta Center
06:25PM 34.4722 -82.9731 343° North 356 410 35,300 720 Climbing Atlanta Center
06:26PM 34.5725 -83.0044 346° North 361 415 36,000 300 Climbing Atlanta Center
06:27PM 34.6731 -83.0336 347° North 371 427 36,000  Level Atlanta Center
06:28PM 34.7797 -83.0678 345° North 376 433 36,000  Level Atlanta Center
06:29PM 34.8925 -83.0867 352° North 402 463 36,000  Level Atlanta Center
06:30PM 35.0200 -83.1028 354° North 412 474 36,000  Level Atlanta Center
06:31PM 35.1369 -83.1092 357° North 418 481 36,000  Level Atlanta Center
06:32PM 35.2433 -83.1131 358° North 419 482 36,000  Level Atlanta Center
06:33PM 35.3603 -83.1244 355° North 419 482 36,000  Level Atlanta Center
06:34PM 35.4731 -83.1642 344° North 420 483 36,000  Level Atlanta Center
06:35PM 35.5861 -83.2036 344° North 420 483 36,000  Level Atlanta Center
06:36PM 35.7011 -83.2486 342° North 426 490 36,000  Level Atlanta Center
06:37PM 35.8017 -83.3219 329° Northwest 421 484 36,000  Level Atlanta Center
06:38PM 35.9064 -83.3850 334° Northwest 415 478 36,000  Level Atlanta Center
06:39PM 36.0275 -83.4250 345° North 410 472 36,000  Level Atlanta Center
06:40PM 36.1425 -83.4603 346° North 410 472 36,000  Level Atlanta Center
06:41PM 36.2553 -83.5006 344° North 420 483 36,000  Level Atlanta Center
06:42PM 36.3658 -83.5358 346° North 415 478 36,000  Level Atlanta Center
06:43PM 36.4006 -83.5439 349° North 412 474 36,000  Level Indianapolis Center
06:44PM 36.5139 -83.5819 345° North 417 480 36,000  Level Indianapolis Center
06:45PM 36.6286 -83.6194 345° North 420 483 36,000  Level Indianapolis Center
06:46PM 36.7422 -83.6572 345° North 419 482 36,000  Level Indianapolis Center
06:47PM 36.8569 -83.6958 345° North 422 486 36,000  Level Indianapolis Center
06:48PM 36.9889 -83.7389 345° North 418 481 36,000  Level Indianapolis Center
06:49PM 37.1033 -83.7783 345° North 422 486 36,000  Level Indianapolis Center
06:50PM 37.2200 -83.8183 345° North 428 493 36,000  Level Indianapolis Center
06:51PM 37.3342 -83.8564 345° North 425 489 36,000  Level Indianapolis Center
06:52PM 37.4494 -83.8950 345° North 425 489 36,000  Level Indianapolis Center
06:53PM 37.5650 -83.9339 345° North 428 493 36,000  Level Indianapolis Center
06:54PM 37.6986 -83.9892 342° North 428 493 36,000  Level Indianapolis Center
06:55PM 37.8081 -84.0522 336° Northwest 433 498 36,000  Level Indianapolis Center
06:56PM 37.9178 -84.1161 335° Northwest 433 498 36,000  Level Indianapolis Center
06:57PM 38.0258 -84.1794 335° Northwest 427 491 36,000  Level Indianapolis Center
06:58PM 38.1344 -84.2439 335° Northwest 430 495 36,000  Level Indianapolis Center
06:59PM 38.2444 -84.3083 335° Northwest 434 499 36,000  Level Indianapolis Center
07:00PM 38.3717 -84.3833 335° Northwest 432 497 36,000  Level Indianapolis Center
07:01PM 38.4808 -84.4467 336° Northwest 430 495 36,000  Level Indianapolis Center
07:02PM 38.5900 -84.5108 335° Northwest 428 493 36,000  Level Indianapolis Center
07:03PM 38.6981 -84.5775 334° Northwest 424 488 36,000 -360 Level Indianapolis Center
07:04PM 38.8047 -84.6400 335° Northwest 425 489 35,300 -900 Descending Indianapolis Center
07:05PM 38.9250 -84.7119 335° Northwest 432 497 34,200 -1,020 Descending Indianapolis Center
07:07PM 39.0364 -84.7803 335° Northwest 438 504 33,200 -1,380 Descending Indianapolis Center
07:08PM 39.1456 -84.8464 335° Northwest 434 499 31,400 -1,860 Descending Indianapolis Center
07:09PM 39.2600 -84.9153 335° Northwest 429 494 29,400 -1,500 Descending Indianapolis Center
07:10PM 39.3692 -84.9819 335° Northwest 433 498 28,400 -720 Descending Indianapolis Center
07:11PM 39.4792 -85.0483 335° Northwest 438 504 28,000 -240 Descending Indianapolis Center
07:12PM 39.5881 -85.1156 335° Northwest 438 504 28,000  Level Indianapolis Center
07:13PM 39.6958 -85.1808 335° Northwest 435 501 28,000  Level Indianapolis Center
07:14PM 39.8247 -85.2611 334° Northwest 432 497 28,000  Level Indianapolis Center
07:15PM 39.9319 -85.3278 335° Northwest 430 495 28,000  Level Indianapolis Center
07:16PM 40.0406 -85.3950 335° Northwest 434 499 28,000 -240 Level Indianapolis Center
07:17PM 40.1483 -85.4625 334° Northwest 432 497 27,600 -1,020 Descending Indianapolis Center
07:17PM 40.2119 -85.5017 335° Northwest 432 497 26,500 -1,980 Descending Chicago Center
07:18PM 40.3200 -85.5703 334° Northwest 434 499 24,600 -1,200 Descending Chicago Center
07:19PM 40.4022 -85.6794 315° West 425 489 24,000 -300 Descending Chicago Center
07:20PM 40.4778 -85.7950 311° West 423 487 24,000  Level Chicago Center
07:21PM 40.5692 -85.9358 311° West 424 488 24,000 -120 Level Chicago Center
07:23PM 40.6453 -86.0556 310° West 426 490 23,800 -480 Descending Chicago Center
07:24PM 40.7186 -86.1711 310° West 425 489 23,100 -420 Descending Chicago Center
07:25PM 40.7953 -86.2889 311° West 424 488 23,000 -60 Descending Chicago Center
07:26PM 40.8697 -86.4061 310° West 420 483 23,000  Level Chicago Center
07:27PM 40.9575 -86.5475 309° West 416 479 23,000  Level Chicago Center
07:28PM 41.0322 -86.6644 310° West 415 478 23,000  Level Chicago Center
07:29PM 41.1058 -86.7806 310° West 420 483 23,000 -780 Level Chicago Center
07:30PM 41.1789 -86.8936 311° West 407 468 21,400 -2,340 Descending Chicago Center
07:31PM 41.2611 -87.0281 309° West 395 455 18,200 -2,580 Descending Chicago Center
07:32PM 41.3308 -87.1392 310° West 394 453 16,100 -2,160 Descending Chicago Center
07:33PM 41.3833 -87.2167 312° West 384 442 14,500 -2,400 Descending Chicago TRACON
07:34PM 41.4500 -87.3000 317° Northwest 362 417 12,100 -1,980 Descending Chicago TRACON
07:34PM 41.5333 -87.3833 323° Northwest 354 407 10,800 -1,200 Descending Chicago TRACON
07:35PM 41.5519 -87.4128 310° West 353 406 10,500 -540 Descending Chicago Center
07:36PM 41.6386 -87.5097 320° Northwest 345 397 10,000 -540 Descending Chicago Center
07:37PM 41.7006 -87.5789 320° Northwest 292 336 9,500 -780 Descending Chicago Center
07:38PM 41.7603 -87.6461 320° Northwest 284 327 8,500 -1,080 Descending Chicago Center
07:38PM 41.7833 -87.6833 310° West 285 328 8,000 -900 Descending Chicago TRACON
07:39PM 41.8333 -87.7500 315° West 243 280 7,300 -540 Descending Chicago TRACON
07:40PM 41.8333 -87.8333 270° West 198 228 7,000 -540 Descending Chicago TRACON
07:41PM 41.8000 -87.8833 228° Southwest 184 212 6,300 -840 Descending Chicago TRACON
07:42PM 41.7878 -87.9225 247° West 184 212 5,600 -960 Descending Chicago Center
07:43PM 41.7650 -87.9789 242° Southwest 195 224 4,700 -780 Descending Chicago Center
07:44PM 41.7944 -88.0356 305° West 192 221 4,000 -720 Descending Chicago Center
07:45PM 41.8558 -88.0181 12° North 191 220 3,300 -840 Descending Chicago Center
07:46PM 41.8914 -87.9747 42° Northeast 180 207 2,300 -900 Descending Chicago Center
07:47PM 41.9239 -87.9358 42° Northeast 168 193 1,500 -540 Descending Chicago Center
07:48PM 41.9508 -87.9022 43° Northeast 162 186 1,200 -300 Descending Chicago Center
07:50PM 41.9667 -87.9000 18° North  Level FlightAware Approximate